KAOH/AOH METAR and TAF weather

Enter ICAO airport designator
Station Type Date Time Source
KAOH METAR 2020/09/19 01:53 UTC NOAA

KAOH 190153Z AUTO 06005KT 10SM CLR 08/04 A3031 RMK AO2 SLP266 T00830039


Station Type Date Time Source
KAOH Decoded METAR 2020/09/19 01:53 UTC NOAA

LIMA ALLEN COUNTY AIRPORT, OH, United States (KAOH) 40-42N 84-01W 296M
Sep 18, 2020 - 09:53 PM EDT / 2020.09.19 0153 UTC
Wind: from the ENE (060 degrees) at 6 MPH (5 KT):0
Visibility: 10 mile(s):0
Sky conditions: clear
Temperature: 46.9 F (8.3 C)
Dew Point: 39.0 F (3.9 C)
Relative Humidity: 73%
Pressure (altimeter): 30.31 in. Hg (1026 hPa)
ob: KAOH 190153Z AUTO 06005KT 10SM CLR 08/04 A3031 RMK AO2 SLP266 T00830039
cycle: 2

Station Type Date Time Source
KAOH TAF UTC NOAA

Error!

Example: see airport list